sensor_id;sensor_type;location;lat;lon;timestamp;temperature;humidity
57242;DHT22;43095;53.302;5.786;2023-08-31T00:02:25;11.40;88.20
57242;DHT22;43095;53.302;5.786;2023-08-31T00:04:52;11.40;88.30
57242;DHT22;43095;53.302;5.786;2023-08-31T00:07:21;11.40;88.50
57242;DHT22;43095;53.302;5.786;2023-08-31T00:09:48;11.30;88.70
57242;DHT22;43095;53.302;5.786;2023-08-31T00:12:16;11.20;88.80
57242;DHT22;43095;53.302;5.786;2023-08-31T00:14:43;11.10;89.10
57242;DHT22;43095;53.302;5.786;2023-08-31T00:17:10;11.10;89.60
57242;DHT22;43095;53.302;5.786;2023-08-31T00:19:38;11.00;89.70
57242;DHT22;43095;53.302;5.786;2023-08-31T00:22:05;11.00;90.00
57242;DHT22;43095;53.302;5.786;2023-08-31T00:24:32;10.90;90.10
57242;DHT22;43095;53.302;5.786;2023-08-31T00:27:00;10.90;90.40
57242;DHT22;43095;53.302;5.786;2023-08-31T00:29:28;10.80;90.60
57242;DHT22;43095;53.302;5.786;2023-08-31T00:31:57;10.80;90.80
57242;DHT22;43095;53.302;5.786;2023-08-31T00:34:25;10.80;90.90
57242;DHT22;43095;53.302;5.786;2023-08-31T00:36:52;10.70;90.90
57242;DHT22;43095;53.302;5.786;2023-08-31T00:39:19;10.70;91.00
57242;DHT22;43095;53.302;5.786;2023-08-31T00:41:47;10.60;91.00
57242;DHT22;43095;53.302;5.786;2023-08-31T00:44:14;10.60;91.10
57242;DHT22;43095;53.302;5.786;2023-08-31T00:46:47;10.50;91.20
57242;DHT22;43095;53.302;5.786;2023-08-31T00:49:14;10.50;91.40
57242;DHT22;43095;53.302;5.786;2023-08-31T00:51:43;10.40;91.40
57242;DHT22;43095;53.302;5.786;2023-08-31T00:54:17;10.40;91.40
57242;DHT22;43095;53.302;5.786;2023-08-31T00:56:45;10.50;91.60
57242;DHT22;43095;53.302;5.786;2023-08-31T00:59:12;10.50;92.00
57242;DHT22;43095;53.302;5.786;2023-08-31T01:01:45;10.50;92.00
57242;DHT22;43095;53.302;5.786;2023-08-31T01:04:47;10.50;92.20
57242;DHT22;43095;53.302;5.786;2023-08-31T01:07:58;10.60;92.80
57242;DHT22;43095;53.302;5.786;2023-08-31T01:13:15;10.70;92.80
57242;DHT22;43095;53.302;5.786;2023-08-31T01:15:52;10.80;92.70
57242;DHT22;43095;53.302;5.786;2023-08-31T01:18:23;10.80;92.90
57242;DHT22;43095;53.302;5.786;2023-08-31T01:24:05;10.90;93.00
57242;DHT22;43095;53.302;5.786;2023-08-31T01:26:32;10.90;93.20
57242;DHT22;43095;53.302;5.786;2023-08-31T01:29:00;10.90;93.10
57242;DHT22;43095;53.302;5.786;2023-08-31T01:31:28;10.90;93.40
57242;DHT22;43095;53.302;5.786;2023-08-31T01:33:56;11.00;93.40
57242;DHT22;43095;53.302;5.786;2023-08-31T01:36:27;11.00;93.70
57242;DHT22;43095;53.302;5.786;2023-08-31T01:39:06;11.00;93.70
57242;DHT22;43095;53.302;5.786;2023-08-31T01:41:40;11.00;93.80
57242;DHT22;43095;53.302;5.786;2023-08-31T01:44:13;11.10;93.90
57242;DHT22;43095;53.302;5.786;2023-08-31T01:46:46;11.10;94.00
57242;DHT22;43095;53.302;5.786;2023-08-31T01:49:13;11.10;94.10
57242;DHT22;43095;53.302;5.786;2023-08-31T01:51:41;11.10;94.10
57242;DHT22;43095;53.302;5.786;2023-08-31T01:54:08;11.10;94.20
57242;DHT22;43095;53.302;5.786;2023-08-31T01:56:35;11.20;94.20
57242;DHT22;43095;53.302;5.786;2023-08-31T01:59:02;11.20;94.40
57242;DHT22;43095;53.302;5.786;2023-08-31T02:01:32;11.20;94.60
57242;DHT22;43095;53.302;5.786;2023-08-31T02:04:00;11.20;94.70
57242;DHT22;43095;53.302;5.786;2023-08-31T02:06:27;11.20;94.80
57242;DHT22;43095;53.302;5.786;2023-08-31T02:08:54;11.20;94.90
57242;DHT22;43095;53.302;5.786;2023-08-31T02:11:21;11.30;95.30
57242;DHT22;43095;53.302;5.786;2023-08-31T02:13:48;11.30;95.70
57242;DHT22;43095;53.302;5.786;2023-08-31T02:16:16;11.30;96.10
57242;DHT22;43095;53.302;5.786;2023-08-31T02:18:43;11.40;95.90
57242;DHT22;43095;53.302;5.786;2023-08-31T02:21:10;11.40;95.70
57242;DHT22;43095;53.302;5.786;2023-08-31T02:23:40;11.40;95.70
57242;DHT22;43095;53.302;5.786;2023-08-31T02:26:07;11.40;95.80
57242;DHT22;43095;53.302;5.786;2023-08-31T02:28:35;11.50;95.80
57242;DHT22;43095;53.302;5.786;2023-08-31T02:31:03;11.50;95.90
57242;DHT22;43095;53.302;5.786;2023-08-31T02:33:31;11.50;96.00
57242;DHT22;43095;53.302;5.786;2023-08-31T02:35:58;11.50;95.90
57242;DHT22;43095;53.302;5.786;2023-08-31T02:38:25;11.50;96.00
57242;DHT22;43095;53.302;5.786;2023-08-31T02:40:53;11.50;96.00
57242;DHT22;43095;53.302;5.786;2023-08-31T02:43:20;11.40;95.90
57242;DHT22;43095;53.302;5.786;2023-08-31T02:45:48;11.40;96.10
57242;DHT22;43095;53.302;5.786;2023-08-31T02:48:16;11.40;96.00
57242;DHT22;43095;53.302;5.786;2023-08-31T02:50:43;11.40;95.90
57242;DHT22;43095;53.302;5.786;2023-08-31T02:53:10;11.40;95.90
57242;DHT22;43095;53.302;5.786;2023-08-31T02:55:37;11.30;96.10
57242;DHT22;43095;53.302;5.786;2023-08-31T02:58:05;11.30;96.20
57242;DHT22;43095;53.302;5.786;2023-08-31T03:00:32;11.30;96.30
57242;DHT22;43095;53.302;5.786;2023-08-31T03:03:00;11.30;96.30
57242;DHT22;43095;53.302;5.786;2023-08-31T03:05:28;11.20;96.20
57242;DHT22;43095;53.302;5.786;2023-08-31T03:07:55;11.20;96.20
57242;DHT22;43095;53.302;5.786;2023-08-31T03:10:24;11.20;96.40
57242;DHT22;43095;53.302;5.786;2023-08-31T03:12:51;11.10;96.50
57242;DHT22;43095;53.302;5.786;2023-08-31T03:15:18;11.10;96.50
57242;DHT22;43095;53.302;5.786;2023-08-31T03:17:45;11.10;96.40
57242;DHT22;43095;53.302;5.786;2023-08-31T03:20:13;11.10;96.50
57242;DHT22;43095;53.302;5.786;2023-08-31T03:22:40;11.10;96.40
57242;DHT22;43095;53.302;5.786;2023-08-31T03:25:08;11.10;96.50
57242;DHT22;43095;53.302;5.786;2023-08-31T03:27:35;11.10;96.50
57242;DHT22;43095;53.302;5.786;2023-08-31T03:30:03;11.00;96.70
57242;DHT22;43095;53.302;5.786;2023-08-31T03:32:31;11.00;96.80
57242;DHT22;43095;53.302;5.786;2023-08-31T03:34:58;11.00;96.70
57242;DHT22;43095;53.302;5.786;2023-08-31T03:37:26;11.00;96.70
57242;DHT22;43095;53.302;5.786;2023-08-31T03:39:54;10.90;96.80
57242;DHT22;43095;53.302;5.786;2023-08-31T03:42:22;10.90;96.90
57242;DHT22;43095;53.302;5.786;2023-08-31T03:44:49;10.90;97.10
57242;DHT22;43095;53.302;5.786;2023-08-31T03:47:16;10.90;97.20
57242;DHT22;43095;53.302;5.786;2023-08-31T03:49:43;10.90;97.00
57242;DHT22;43095;53.302;5.786;2023-08-31T03:52:11;10.90;97.00
57242;DHT22;43095;53.302;5.786;2023-08-31T03:54:38;10.90;97.10
57242;DHT22;43095;53.302;5.786;2023-08-31T03:57:05;10.90;97.20
57242;DHT22;43095;53.302;5.786;2023-08-31T03:59:32;10.90;97.20
57242;DHT22;43095;53.302;5.786;2023-08-31T04:01:59;10.90;97.10
57242;DHT22;43095;53.302;5.786;2023-08-31T04:04:28;10.80;97.20
57242;DHT22;43095;53.302;5.786;2023-08-31T04:06:55;10.80;97.10
57242;DHT22;43095;53.302;5.786;2023-08-31T04:09:23;10.80;97.10
57242;DHT22;43095;53.302;5.786;2023-08-31T04:11:52;10.80;97.20
57242;DHT22;43095;53.302;5.786;2023-08-31T04:14:19;10.80;97.20
57242;DHT22;43095;53.302;5.786;2023-08-31T04:16:46;10.80;97.20
57242;DHT22;43095;53.302;5.786;2023-08-31T04:19:16;10.80;97.20
57242;DHT22;43095;53.302;5.786;2023-08-31T04:21:44;10.80;97.20
57242;DHT22;43095;53.302;5.786;2023-08-31T04:24:11;10.80;97.10
57242;DHT22;43095;53.302;5.786;2023-08-31T04:26:38;10.80;96.90
57242;DHT22;43095;53.302;5.786;2023-08-31T04:29:05;10.80;96.90
57242;DHT22;43095;53.302;5.786;2023-08-31T04:31:33;10.80;96.90
57242;DHT22;43095;53.302;5.786;2023-08-31T04:34:00;10.80;96.80
57242;DHT22;43095;53.302;5.786;2023-08-31T04:36:27;10.80;96.90
57242;DHT22;43095;53.302;5.786;2023-08-31T04:38:54;10.70;96.80
57242;DHT22;43095;53.302;5.786;2023-08-31T04:41:22;10.70;96.80
57242;DHT22;43095;53.302;5.786;2023-08-31T04:43:49;10.70;96.80
57242;DHT22;43095;53.302;5.786;2023-08-31T04:46:16;10.70;96.90
57242;DHT22;43095;53.302;5.786;2023-08-31T04:48:43;10.70;97.10
57242;DHT22;43095;53.302;5.786;2023-08-31T04:51:30;10.60;97.10
57242;DHT22;43095;53.302;5.786;2023-08-31T04:53:59;10.60;97.10
57242;DHT22;43095;53.302;5.786;2023-08-31T04:56:30;10.60;97.10
57242;DHT22;43095;53.302;5.786;2023-08-31T04:59:01;10.60;97.20
57242;DHT22;43095;53.302;5.786;2023-08-31T05:01:29;10.60;97.20
57242;DHT22;43095;53.302;5.786;2023-08-31T05:03:57;10.60;97.20
57242;DHT22;43095;53.302;5.786;2023-08-31T05:06:24;10.60;97.20
57242;DHT22;43095;53.302;5.786;2023-08-31T05:08:52;10.60;97.10
57242;DHT22;43095;53.302;5.786;2023-08-31T05:11:19;10.60;97.00
57242;DHT22;43095;53.302;5.786;2023-08-31T05:13:47;10.70;97.00
57242;DHT22;43095;53.302;5.786;2023-08-31T05:16:15;10.70;97.00
57242;DHT22;43095;53.302;5.786;2023-08-31T05:18:45;10.70;96.90
57242;DHT22;43095;53.302;5.786;2023-08-31T05:21:12;10.70;96.90
57242;DHT22;43095;53.302;5.786;2023-08-31T05:23:39;10.70;96.80
57242;DHT22;43095;53.302;5.786;2023-08-31T05:26:06;10.80;96.80
57242;DHT22;43095;53.302;5.786;2023-08-31T05:28:33;10.80;96.80
57242;DHT22;43095;53.302;5.786;2023-08-31T05:31:01;10.80;96.90
57242;DHT22;43095;53.302;5.786;2023-08-31T05:33:32;10.90;96.90
57242;DHT22;43095;53.302;5.786;2023-08-31T05:36:01;10.90;96.90
57242;DHT22;43095;53.302;5.786;2023-08-31T05:38:31;11.00;96.90
57242;DHT22;43095;53.302;5.786;2023-08-31T05:41:08;11.00;96.90
57242;DHT22;43095;53.302;5.786;2023-08-31T05:43:36;11.10;97.10
57242;DHT22;43095;53.302;5.786;2023-08-31T05:46:07;11.10;96.90
57242;DHT22;43095;53.302;5.786;2023-08-31T05:48:35;11.10;97.00
57242;DHT22;43095;53.302;5.786;2023-08-31T05:51:03;11.20;97.10
57242;DHT22;43095;53.302;5.786;2023-08-31T05:53:31;11.20;97.10
57242;DHT22;43095;53.302;5.786;2023-08-31T05:55:59;11.30;97.10
57242;DHT22;43095;53.302;5.786;2023-08-31T05:58:35;11.30;97.20
57242;DHT22;43095;53.302;5.786;2023-08-31T06:01:04;11.30;97.20
57242;DHT22;43095;53.302;5.786;2023-08-31T06:03:31;11.40;97.30
57242;DHT22;43095;53.302;5.786;2023-08-31T06:05:59;11.40;97.30
57242;DHT22;43095;53.302;5.786;2023-08-31T06:08:27;11.50;97.30
57242;DHT22;43095;53.302;5.786;2023-08-31T06:10:54;11.50;97.30
57242;DHT22;43095;53.302;5.786;2023-08-31T06:13:21;11.60;97.40
57242;DHT22;43095;53.302;5.786;2023-08-31T06:15:49;11.70;97.50
57242;DHT22;43095;53.302;5.786;2023-08-31T06:18:16;11.70;97.70
57242;DHT22;43095;53.302;5.786;2023-08-31T06:20:43;11.80;97.70
57242;DHT22;43095;53.302;5.786;2023-08-31T06:23:10;11.90;97.70
57242;DHT22;43095;53.302;5.786;2023-08-31T06:25:39;11.90;97.60
57242;DHT22;43095;53.302;5.786;2023-08-31T06:28:06;12.10;97.70
57242;DHT22;43095;53.302;5.786;2023-08-31T06:30:35;12.20;97.50
57242;DHT22;43095;53.302;5.786;2023-08-31T06:33:03;12.30;97.40
57242;DHT22;43095;53.302;5.786;2023-08-31T06:35:30;12.50;97.20
57242;DHT22;43095;53.302;5.786;2023-08-31T06:38:00;12.50;97.10
57242;DHT22;43095;53.302;5.786;2023-08-31T06:40:27;12.60;96.90
57242;DHT22;43095;53.302;5.786;2023-08-31T06:42:54;12.80;96.50
57242;DHT22;43095;53.302;5.786;2023-08-31T06:45:21;12.90;96.30
57242;DHT22;43095;53.302;5.786;2023-08-31T06:47:49;12.90;96.20
57242;DHT22;43095;53.302;5.786;2023-08-31T06:50:17;13.00;95.40
57242;DHT22;43095;53.302;5.786;2023-08-31T06:52:44;13.10;95.20
57242;DHT22;43095;53.302;5.786;2023-08-31T06:55:13;13.30;94.70
57242;DHT22;43095;53.302;5.786;2023-08-31T06:57:40;13.30;94.30
57242;DHT22;43095;53.302;5.786;2023-08-31T07:00:09;13.50;94.00
57242;DHT22;43095;53.302;5.786;2023-08-31T07:02:40;13.60;93.60
57242;DHT22;43095;53.302;5.786;2023-08-31T07:05:10;13.60;93.20
57242;DHT22;43095;53.302;5.786;2023-08-31T07:07:38;13.70;93.10
57242;DHT22;43095;53.302;5.786;2023-08-31T07:10:05;13.80;92.90
57242;DHT22;43095;53.302;5.786;2023-08-31T07:12:33;13.90;92.30
57242;DHT22;43095;53.302;5.786;2023-08-31T07:15:01;14.00;91.80
57242;DHT22;43095;53.302;5.786;2023-08-31T07:17:28;14.10;91.50
57242;DHT22;43095;53.302;5.786;2023-08-31T07:19:55;14.20;91.10
57242;DHT22;43095;53.302;5.786;2023-08-31T07:22:22;14.30;91.20
57242;DHT22;43095;53.302;5.786;2023-08-31T07:24:49;14.30;90.90
57242;DHT22;43095;53.302;5.786;2023-08-31T07:27:17;14.40;90.10
57242;DHT22;43095;53.302;5.786;2023-08-31T07:29:44;14.50;89.00
57242;DHT22;43095;53.302;5.786;2023-08-31T07:32:11;14.60;88.30
57242;DHT22;43095;53.302;5.786;2023-08-31T07:34:38;14.70;88.10
57242;DHT22;43095;53.302;5.786;2023-08-31T07:37:05;14.80;87.20
57242;DHT22;43095;53.302;5.786;2023-08-31T07:39:33;14.90;86.40
57242;DHT22;43095;53.302;5.786;2023-08-31T07:42:00;15.00;85.60
57242;DHT22;43095;53.302;5.786;2023-08-31T07:44:27;15.20;84.90
57242;DHT22;43095;53.302;5.786;2023-08-31T07:46:54;15.20;84.90
57242;DHT22;43095;53.302;5.786;2023-08-31T07:49:22;15.20;84.80
57242;DHT22;43095;53.302;5.786;2023-08-31T07:51:49;15.00;84.80
57242;DHT22;43095;53.302;5.786;2023-08-31T07:54:21;15.00;84.80
57242;DHT22;43095;53.302;5.786;2023-08-31T07:56:50;14.90;84.90
57242;DHT22;43095;53.302;5.786;2023-08-31T07:59:18;14.80;85.10
57242;DHT22;43095;53.302;5.786;2023-08-31T08:01:45;14.80;85.50
57242;DHT22;43095;53.302;5.786;2023-08-31T08:04:13;14.70;85.50
57242;DHT22;43095;53.302;5.786;2023-08-31T08:06:40;14.60;85.40
57242;DHT22;43095;53.302;5.786;2023-08-31T08:09:07;14.60;85.50
57242;DHT22;43095;53.302;5.786;2023-08-31T08:11:35;14.60;85.60
57242;DHT22;43095;53.302;5.786;2023-08-31T08:14:02;14.70;85.50
57242;DHT22;43095;53.302;5.786;2023-08-31T08:16:30;14.80;84.80
57242;DHT22;43095;53.302;5.786;2023-08-31T08:18:57;15.00;84.50
57242;DHT22;43095;53.302;5.786;2023-08-31T08:21:25;15.00;84.70
57242;DHT22;43095;53.302;5.786;2023-08-31T08:23:52;15.20;84.60
57242;DHT22;43095;53.302;5.786;2023-08-31T08:26:19;15.30;84.30
57242;DHT22;43095;53.302;5.786;2023-08-31T08:28:46;15.40;84.20
57242;DHT22;43095;53.302;5.786;2023-08-31T08:31:14;15.50;83.90
57242;DHT22;43095;53.302;5.786;2023-08-31T08:33:41;15.60;83.40
57242;DHT22;43095;53.302;5.786;2023-08-31T08:36:08;15.70;83.30
57242;DHT22;43095;53.302;5.786;2023-08-31T08:38:35;15.80;82.10
57242;DHT22;43095;53.302;5.786;2023-08-31T08:41:05;15.80;82.10
57242;DHT22;43095;53.302;5.786;2023-08-31T08:43:34;15.90;82.00
57242;DHT22;43095;53.302;5.786;2023-08-31T08:46:05;15.90;81.80
57242;DHT22;43095;53.302;5.786;2023-08-31T08:48:34;15.90;81.70
57242;DHT22;43095;53.302;5.786;2023-08-31T08:51:03;16.00;81.50
57242;DHT22;43095;53.302;5.786;2023-08-31T08:53:31;16.00;81.90
57242;DHT22;43095;53.302;5.786;2023-08-31T08:55:58;15.90;82.30
57242;DHT22;43095;53.302;5.786;2023-08-31T08:58:26;15.80;82.40
57242;DHT22;43095;53.302;5.786;2023-08-31T09:00:54;15.60;82.50
57242;DHT22;43095;53.302;5.786;2023-08-31T09:03:24;15.60;82.90
57242;DHT22;43095;53.302;5.786;2023-08-31T09:05:51;15.50;83.30
57242;DHT22;43095;53.302;5.786;2023-08-31T09:08:26;15.50;84.00
57242;DHT22;43095;53.302;5.786;2023-08-31T09:10:56;15.50;84.00
57242;DHT22;43095;53.302;5.786;2023-08-31T09:13:30;15.60;83.20
57242;DHT22;43095;53.302;5.786;2023-08-31T09:15:57;15.80;82.00
57242;DHT22;43095;53.302;5.786;2023-08-31T09:18:27;16.00;81.50
57242;DHT22;43095;53.302;5.786;2023-08-31T09:20:56;16.20;80.50
57242;DHT22;43095;53.302;5.786;2023-08-31T09:23:24;16.30;80.20
57242;DHT22;43095;53.302;5.786;2023-08-31T09:25:53;16.40;79.20
57242;DHT22;43095;53.302;5.786;2023-08-31T09:28:26;16.50;78.70
57242;DHT22;43095;53.302;5.786;2023-08-31T09:31:15;16.60;77.30
57242;DHT22;43095;53.302;5.786;2023-08-31T09:33:52;16.60;77.00
57242;DHT22;43095;53.302;5.786;2023-08-31T09:36:20;16.50;77.70
57242;DHT22;43095;53.302;5.786;2023-08-31T09:38:48;16.40;78.10
57242;DHT22;43095;53.302;5.786;2023-08-31T09:41:15;16.50;78.40
57242;DHT22;43095;53.302;5.786;2023-08-31T09:43:43;16.60;77.60
57242;DHT22;43095;53.302;5.786;2023-08-31T09:46:11;16.60;76.50
57242;DHT22;43095;53.302;5.786;2023-08-31T09:48:42;16.70;76.70
57242;DHT22;43095;53.302;5.786;2023-08-31T09:51:10;16.80;76.60
57242;DHT22;43095;53.302;5.786;2023-08-31T09:53:38;16.90;76.60
57242;DHT22;43095;53.302;5.786;2023-08-31T09:56:06;16.90;77.00
57242;DHT22;43095;53.302;5.786;2023-08-31T09:58:34;16.90;76.80
57242;DHT22;43095;53.302;5.786;2023-08-31T10:01:02;17.00;76.10
57242;DHT22;43095;53.302;5.786;2023-08-31T10:03:39;16.90;75.10
57242;DHT22;43095;53.302;5.786;2023-08-31T10:06:07;17.00;75.30
57242;DHT22;43095;53.302;5.786;2023-08-31T10:08:38;17.00;73.10
57242;DHT22;43095;53.302;5.786;2023-08-31T10:11:06;17.00;73.30
57242;DHT22;43095;53.302;5.786;2023-08-31T10:13:34;17.00;73.90
57242;DHT22;43095;53.302;5.786;2023-08-31T10:16:06;17.00;74.30
57242;DHT22;43095;53.302;5.786;2023-08-31T10:18:34;17.20;75.10
57242;DHT22;43095;53.302;5.786;2023-08-31T10:21:03;17.40;75.40
57242;DHT22;43095;53.302;5.786;2023-08-31T10:23:31;17.50;75.00
57242;DHT22;43095;53.302;5.786;2023-08-31T10:26:00;17.60;75.00
57242;DHT22;43095;53.302;5.786;2023-08-31T10:28:28;17.80;75.10
57242;DHT22;43095;53.302;5.786;2023-08-31T10:31:24;17.80;75.10
57242;DHT22;43095;53.302;5.786;2023-08-31T10:34:04;17.80;73.70
57242;DHT22;43095;53.302;5.786;2023-08-31T10:36:43;17.90;71.50
57242;DHT22;43095;53.302;5.786;2023-08-31T10:39:15;17.90;68.70
57242;DHT22;43095;53.302;5.786;2023-08-31T10:41:54;17.90;69.50
57242;DHT22;43095;53.302;5.786;2023-08-31T10:44:27;18.00;70.00
57242;DHT22;43095;53.302;5.786;2023-08-31T10:47:00;18.10;70.40
57242;DHT22;43095;53.302;5.786;2023-08-31T10:49:30;18.20;70.70
57242;DHT22;43095;53.302;5.786;2023-08-31T10:52:16;18.20;69.40
57242;DHT22;43095;53.302;5.786;2023-08-31T10:54:54;18.30;70.30
57242;DHT22;43095;53.302;5.786;2023-08-31T10:57:31;18.40;71.10
57242;DHT22;43095;53.302;5.786;2023-08-31T11:00:03;18.60;70.50
57242;DHT22;43095;53.302;5.786;2023-08-31T11:02:35;18.70;70.10
57242;DHT22;43095;53.302;5.786;2023-08-31T11:05:12;18.70;69.40
57242;DHT22;43095;53.302;5.786;2023-08-31T11:07:50;18.90;69.60
57242;DHT22;43095;53.302;5.786;2023-08-31T11:10:22;18.90;69.20
57242;DHT22;43095;53.302;5.786;2023-08-31T11:12:55;19.00;69.00
57242;DHT22;43095;53.302;5.786;2023-08-31T11:15:27;19.10;69.10
57242;DHT22;43095;53.302;5.786;2023-08-31T11:17:57;19.00;67.40
57242;DHT22;43095;53.302;5.786;2023-08-31T11:20:25;18.90;68.00
57242;DHT22;43095;53.302;5.786;2023-08-31T11:22:56;19.10;67.70
57242;DHT22;43095;53.302;5.786;2023-08-31T11:25:23;19.20;65.70
57242;DHT22;43095;53.302;5.786;2023-08-31T11:30:29;19.00;65.50
57242;DHT22;43095;53.302;5.786;2023-08-31T11:33:04;19.10;66.40
57242;DHT22;43095;53.302;5.786;2023-08-31T11:35:37;19.20;66.30
57242;DHT22;43095;53.302;5.786;2023-08-31T11:38:07;19.30;66.20
57242;DHT22;43095;53.302;5.786;2023-08-31T11:40:36;19.50;66.40
57242;DHT22;43095;53.302;5.786;2023-08-31T11:43:07;19.70;65.80
57242;DHT22;43095;53.302;5.786;2023-08-31T11:45:36;19.70;64.60
57242;DHT22;43095;53.302;5.786;2023-08-31T11:48:06;19.80;63.60
57242;DHT22;43095;53.302;5.786;2023-08-31T11:50:34;19.80;62.90
57242;DHT22;43095;53.302;5.786;2023-08-31T11:53:01;19.80;62.00
57242;DHT22;43095;53.302;5.786;2023-08-31T11:55:29;19.80;61.90
57242;DHT22;43095;53.302;5.786;2023-08-31T11:57:56;19.80;62.30
57242;DHT22;43095;53.302;5.786;2023-08-31T12:00:23;19.50;63.10
57242;DHT22;43095;53.302;5.786;2023-08-31T12:02:58;19.40;63.90
57242;DHT22;43095;53.302;5.786;2023-08-31T12:05:27;19.40;64.10
57242;DHT22;43095;53.302;5.786;2023-08-31T12:07:55;19.40;64.40
57242;DHT22;43095;53.302;5.786;2023-08-31T12:10:26;19.30;64.60
57242;DHT22;43095;53.302;5.786;2023-08-31T12:12:54;19.40;65.20
57242;DHT22;43095;53.302;5.786;2023-08-31T12:15:35;19.50;65.00
57242;DHT22;43095;53.302;5.786;2023-08-31T12:20:46;19.40;62.60
57242;DHT22;43095;53.302;5.786;2023-08-31T12:23:18;19.10;63.00
57242;DHT22;43095;53.302;5.786;2023-08-31T12:25:50;18.90;64.60
57242;DHT22;43095;53.302;5.786;2023-08-31T12:28:21;18.80;66.40
57242;DHT22;43095;53.302;5.786;2023-08-31T12:30:51;19.00;67.30
57242;DHT22;43095;53.302;5.786;2023-08-31T12:33:20;19.20;68.00
57242;DHT22;43095;53.302;5.786;2023-08-31T12:35:48;19.40;68.20
57242;DHT22;43095;53.302;5.786;2023-08-31T12:38:15;19.60;67.30
57242;DHT22;43095;53.302;5.786;2023-08-31T12:40:43;19.70;66.50
57242;DHT22;43095;53.302;5.786;2023-08-31T12:43:10;19.50;65.30
57242;DHT22;43095;53.302;5.786;2023-08-31T12:45:37;19.40;66.00
57242;DHT22;43095;53.302;5.786;2023-08-31T12:48:05;19.30;66.50
57242;DHT22;43095;53.302;5.786;2023-08-31T12:50:33;19.50;67.00
57242;DHT22;43095;53.302;5.786;2023-08-31T12:53:00;19.70;66.80
57242;DHT22;43095;53.302;5.786;2023-08-31T12:55:27;19.70;66.40
57242;DHT22;43095;53.302;5.786;2023-08-31T12:57:54;20.00;65.60
57242;DHT22;43095;53.302;5.786;2023-08-31T13:00:21;20.20;65.50
57242;DHT22;43095;53.302;5.786;2023-08-31T13:02:50;20.50;65.20
57242;DHT22;43095;53.302;5.786;2023-08-31T13:05:18;20.50;64.30
57242;DHT22;43095;53.302;5.786;2023-08-31T13:07:46;20.50;65.00
57242;DHT22;43095;53.302;5.786;2023-08-31T13:10:13;20.60;63.80
57242;DHT22;43095;53.302;5.786;2023-08-31T13:12:41;20.70;63.60
57242;DHT22;43095;53.302;5.786;2023-08-31T13:15:08;20.80;63.50
57242;DHT22;43095;53.302;5.786;2023-08-31T13:17:36;20.90;62.80
57242;DHT22;43095;53.302;5.786;2023-08-31T13:20:04;20.50;61.10
57242;DHT22;43095;53.302;5.786;2023-08-31T13:22:31;20.30;61.10
57242;DHT22;43095;53.302;5.786;2023-08-31T13:24:59;20.10;62.30
57242;DHT22;43095;53.302;5.786;2023-08-31T13:27:26;20.10;63.40
57242;DHT22;43095;53.302;5.786;2023-08-31T13:29:53;20.40;62.90
57242;DHT22;43095;53.302;5.786;2023-08-31T13:32:20;20.60;62.70
57242;DHT22;43095;53.302;5.786;2023-08-31T13:34:47;20.70;62.80
57242;DHT22;43095;53.302;5.786;2023-08-31T13:37:15;20.90;63.60
57242;DHT22;43095;53.302;5.786;2023-08-31T13:39:42;21.10;63.70
57242;DHT22;43095;53.302;5.786;2023-08-31T13:42:09;21.30;63.30
57242;DHT22;43095;53.302;5.786;2023-08-31T13:44:36;21.50;62.30
57242;DHT22;43095;53.302;5.786;2023-08-31T13:47:03;21.50;61.20
57242;DHT22;43095;53.302;5.786;2023-08-31T13:49:32;21.60;61.40
57242;DHT22;43095;53.302;5.786;2023-08-31T13:52:00;21.70;59.50
57242;DHT22;43095;53.302;5.786;2023-08-31T13:54:27;21.70;58.20
57242;DHT22;43095;53.302;5.786;2023-08-31T13:56:54;21.80;58.80
57242;DHT22;43095;53.302;5.786;2023-08-31T13:59:22;22.00;59.50
57242;DHT22;43095;53.302;5.786;2023-08-31T14:01:49;22.00;58.90
57242;DHT22;43095;53.302;5.786;2023-08-31T14:04:16;21.90;58.60
57242;DHT22;43095;53.302;5.786;2023-08-31T14:06:43;21.50;58.10
57242;DHT22;43095;53.302;5.786;2023-08-31T14:09:10;21.10;58.70
57242;DHT22;43095;53.302;5.786;2023-08-31T14:11:38;21.00;59.00
57242;DHT22;43095;53.302;5.786;2023-08-31T14:14:07;21.10;59.30
57242;DHT22;43095;53.302;5.786;2023-08-31T14:16:38;21.00;59.70
57242;DHT22;43095;53.302;5.786;2023-08-31T14:19:05;20.80;59.40
57242;DHT22;43095;53.302;5.786;2023-08-31T14:21:32;20.80;59.50
57242;DHT22;43095;53.302;5.786;2023-08-31T14:24:01;21.00;58.90
57242;DHT22;43095;53.302;5.786;2023-08-31T14:26:28;21.00;58.20
57242;DHT22;43095;53.302;5.786;2023-08-31T14:28:55;21.10;56.90
57242;DHT22;43095;53.302;5.786;2023-08-31T14:31:22;21.40;57.10
57242;DHT22;43095;53.302;5.786;2023-08-31T14:33:50;21.50;56.70
57242;DHT22;43095;53.302;5.786;2023-08-31T14:36:18;21.50;56.00
57242;DHT22;43095;53.302;5.786;2023-08-31T14:38:46;21.30;56.00
57242;DHT22;43095;53.302;5.786;2023-08-31T14:41:13;21.20;57.40
57242;DHT22;43095;53.302;5.786;2023-08-31T14:43:40;21.10;57.40
57242;DHT22;43095;53.302;5.786;2023-08-31T14:46:10;21.30;57.10
57242;DHT22;43095;53.302;5.786;2023-08-31T14:48:37;21.50;56.30
57242;DHT22;43095;53.302;5.786;2023-08-31T14:51:05;21.50;55.80
57242;DHT22;43095;53.302;5.786;2023-08-31T14:53:32;21.40;55.50
57242;DHT22;43095;53.302;5.786;2023-08-31T14:55:59;21.20;55.20
57242;DHT22;43095;53.302;5.786;2023-08-31T14:58:26;21.10;55.40
57242;DHT22;43095;53.302;5.786;2023-08-31T15:00:57;21.10;55.50
57242;DHT22;43095;53.302;5.786;2023-08-31T15:03:25;21.00;55.60
57242;DHT22;43095;53.302;5.786;2023-08-31T15:05:52;20.60;56.80
57242;DHT22;43095;53.302;5.786;2023-08-31T15:08:23;20.60;57.30
57242;DHT22;43095;53.302;5.786;2023-08-31T15:11:02;20.80;57.80
57242;DHT22;43095;53.302;5.786;2023-08-31T15:13:29;21.00;57.20
57242;DHT22;43095;53.302;5.786;2023-08-31T15:15:57;21.30;56.80
57242;DHT22;43095;53.302;5.786;2023-08-31T15:18:29;21.30;57.20
57242;DHT22;43095;53.302;5.786;2023-08-31T15:20:57;21.00;57.20
57242;DHT22;43095;53.302;5.786;2023-08-31T15:23:24;20.50;58.20
57242;DHT22;43095;53.302;5.786;2023-08-31T15:25:51;20.10;59.10
57242;DHT22;43095;53.302;5.786;2023-08-31T15:28:18;19.80;60.00
57242;DHT22;43095;53.302;5.786;2023-08-31T15:30:45;19.40;61.00
57242;DHT22;43095;53.302;5.786;2023-08-31T15:33:13;19.00;62.50
57242;DHT22;43095;53.302;5.786;2023-08-31T15:35:40;18.70;62.90
57242;DHT22;43095;53.302;5.786;2023-08-31T15:38:07;18.40;64.60
57242;DHT22;43095;53.302;5.786;2023-08-31T15:40:35;18.20;66.60
57242;DHT22;43095;53.302;5.786;2023-08-31T15:43:02;18.00;68.00
57242;DHT22;43095;53.302;5.786;2023-08-31T15:45:29;18.00;69.20
57242;DHT22;43095;53.302;5.786;2023-08-31T15:47:57;17.80;70.30
57242;DHT22;43095;53.302;5.786;2023-08-31T15:50:24;17.70;71.10
57242;DHT22;43095;53.302;5.786;2023-08-31T15:52:51;17.60;71.40